sensor_id;sensor_type;location;lat;lon;timestamp;P1;durP1;ratioP1;P2;durP2;ratioP2
3849;SDS011;1940;51.052;13.678;2023-07-13T00:01:04;2.23;;;1.77;;
3849;SDS011;1940;51.052;13.678;2023-07-13T00:03:31;4.50;;;2.40;;
3849;SDS011;1940;51.052;13.678;2023-07-13T00:06:00;5.50;;;2.60;;
3849;SDS011;1940;51.052;13.678;2023-07-13T00:08:26;5.70;;;1.80;;
3849;SDS011;1940;51.052;13.678;2023-07-13T00:10:54;4.83;;;2.10;;
3849;SDS011;1940;51.052;13.678;2023-07-13T00:13:20;4.10;;;2.60;;
3849;SDS011;1940;51.052;13.678;2023-07-13T00:15:45;3.40;;;2.30;;
3849;SDS011;1940;51.052;13.678;2023-07-13T00:18:11;3.67;;;2.10;;
3849;SDS011;1940;51.052;13.678;2023-07-13T00:20:37;3.43;;;2.10;;
3849;SDS011;1940;51.052;13.678;2023-07-13T00:23:02;2.50;;;2.17;;
3849;SDS011;1940;51.052;13.678;2023-07-13T00:25:27;3.70;;;2.27;;
3849;SDS011;1940;51.052;13.678;2023-07-13T00:27:53;2.63;;;2.17;;
3849;SDS011;1940;51.052;13.678;2023-07-13T00:30:19;4.53;;;2.23;;
3849;SDS011;1940;51.052;13.678;2023-07-13T00:32:45;2.13;;;1.93;;
3849;SDS011;1940;51.052;13.678;2023-07-13T00:35:12;3.23;;;2.10;;
3849;SDS011;1940;51.052;13.678;2023-07-13T00:37:39;6.57;;;2.13;;
3849;SDS011;1940;51.052;13.678;2023-07-13T00:40:04;12.80;;;2.70;;
3849;SDS011;1940;51.052;13.678;2023-07-13T00:42:31;2.90;;;2.40;;
3849;SDS011;1940;51.052;13.678;2023-07-13T00:47:37;7.13;;;3.03;;
3849;SDS011;1940;51.052;13.678;2023-07-13T00:50:08;5.63;;;3.03;;
3849;SDS011;1940;51.052;13.678;2023-07-13T00:52:39;5.33;;;3.10;;
3849;SDS011;1940;51.052;13.678;2023-07-13T00:55:06;5.70;;;3.13;;
3849;SDS011;1940;51.052;13.678;2023-07-13T00:57:34;3.20;;;2.80;;
3849;SDS011;1940;51.052;13.678;2023-07-13T01:00:00;5.77;;;3.30;;
3849;SDS011;1940;51.052;13.678;2023-07-13T01:02:33;3.80;;;2.80;;
3849;SDS011;1940;51.052;13.678;2023-07-13T01:05:08;4.53;;;3.10;;
3849;SDS011;1940;51.052;13.678;2023-07-13T01:07:35;4.50;;;3.03;;
3849;SDS011;1940;51.052;13.678;2023-07-13T01:10:01;6.70;;;3.20;;
3849;SDS011;1940;51.052;13.678;2023-07-13T01:12:28;3.03;;;2.70;;
3849;SDS011;1940;51.052;13.678;2023-07-13T01:14:57;5.20;;;3.10;;
3849;SDS011;1940;51.052;13.678;2023-07-13T01:17:25;3.40;;;3.07;;
3849;SDS011;1940;51.052;13.678;2023-07-13T01:19:51;4.80;;;3.40;;
3849;SDS011;1940;51.052;13.678;2023-07-13T01:22:18;5.07;;;2.90;;
3849;SDS011;1940;51.052;13.678;2023-07-13T01:24:45;7.03;;;3.23;;
3849;SDS011;1940;51.052;13.678;2023-07-13T01:27:14;4.00;;;3.07;;
3849;SDS011;1940;51.052;13.678;2023-07-13T01:29:44;5.40;;;3.20;;
3849;SDS011;1940;51.052;13.678;2023-07-13T01:32:13;7.50;;;3.37;;
3849;SDS011;1940;51.052;13.678;2023-07-13T01:34:40;14.60;;;3.40;;
3849;SDS011;1940;51.052;13.678;2023-07-13T01:37:09;6.03;;;2.97;;
3849;SDS011;1940;51.052;13.678;2023-07-13T01:39:36;3.93;;;2.93;;
3849;SDS011;1940;51.052;13.678;2023-07-13T01:42:02;5.93;;;2.90;;
3849;SDS011;1940;51.052;13.678;2023-07-13T01:44:28;5.33;;;3.03;;
3849;SDS011;1940;51.052;13.678;2023-07-13T01:46:54;3.73;;;3.30;;
3849;SDS011;1940;51.052;13.678;2023-07-13T01:49:19;4.97;;;3.37;;
3849;SDS011;1940;51.052;13.678;2023-07-13T01:51:45;7.97;;;3.20;;
3849;SDS011;1940;51.052;13.678;2023-07-13T01:54:10;3.70;;;3.00;;
3849;SDS011;1940;51.052;13.678;2023-07-13T01:56:36;3.63;;;3.00;;
3849;SDS011;1940;51.052;13.678;2023-07-13T01:59:01;3.07;;;2.67;;
3849;SDS011;1940;51.052;13.678;2023-07-13T02:01:27;4.10;;;3.00;;
3849;SDS011;1940;51.052;13.678;2023-07-13T02:03:52;3.43;;;2.90;;
3849;SDS011;1940;51.052;13.678;2023-07-13T02:06:18;4.53;;;3.30;;
3849;SDS011;1940;51.052;13.678;2023-07-13T02:08:43;5.27;;;3.00;;
3849;SDS011;1940;51.052;13.678;2023-07-13T02:11:09;3.83;;;3.00;;
3849;SDS011;1940;51.052;13.678;2023-07-13T02:13:35;5.00;;;3.13;;
3849;SDS011;1940;51.052;13.678;2023-07-13T02:16:00;5.17;;;2.90;;
3849;SDS011;1940;51.052;13.678;2023-07-13T02:18:26;5.30;;;3.53;;
3849;SDS011;1940;51.052;13.678;2023-07-13T02:20:51;4.17;;;3.53;;
3849;SDS011;1940;51.052;13.678;2023-07-13T02:23:17;6.20;;;3.10;;
3849;SDS011;1940;51.052;13.678;2023-07-13T02:25:43;3.37;;;2.93;;
3849;SDS011;1940;51.052;13.678;2023-07-13T02:28:09;5.07;;;3.40;;
3849;SDS011;1940;51.052;13.678;2023-07-13T02:30:34;3.80;;;3.20;;
3849;SDS011;1940;51.052;13.678;2023-07-13T02:33:00;7.73;;;3.00;;
3849;SDS011;1940;51.052;13.678;2023-07-13T02:35:26;3.80;;;3.13;;
3849;SDS011;1940;51.052;13.678;2023-07-13T02:37:51;5.07;;;3.40;;
3849;SDS011;1940;51.052;13.678;2023-07-13T02:40:17;5.70;;;3.30;;
3849;SDS011;1940;51.052;13.678;2023-07-13T02:42:42;6.00;;;3.50;;
3849;SDS011;1940;51.052;13.678;2023-07-13T02:45:08;9.47;;;3.17;;
3849;SDS011;1940;51.052;13.678;2023-07-13T02:47:34;5.50;;;3.00;;
3849;SDS011;1940;51.052;13.678;2023-07-13T02:50:00;4.73;;;3.40;;
3849;SDS011;1940;51.052;13.678;2023-07-13T02:52:26;3.57;;;3.07;;
3849;SDS011;1940;51.052;13.678;2023-07-13T02:54:51;5.87;;;3.30;;
3849;SDS011;1940;51.052;13.678;2023-07-13T02:57:17;4.90;;;3.00;;
3849;SDS011;1940;51.052;13.678;2023-07-13T02:59:42;3.67;;;3.33;;
3849;SDS011;1940;51.052;13.678;2023-07-13T03:02:08;5.33;;;3.37;;
3849;SDS011;1940;51.052;13.678;2023-07-13T03:04:35;7.17;;;3.20;;
3849;SDS011;1940;51.052;13.678;2023-07-13T03:07:01;5.40;;;3.80;;
3849;SDS011;1940;51.052;13.678;2023-07-13T03:09:27;4.53;;;3.33;;
3849;SDS011;1940;51.052;13.678;2023-07-13T03:11:55;5.10;;;3.67;;
3849;SDS011;1940;51.052;13.678;2023-07-13T03:14:21;6.70;;;4.33;;
3849;SDS011;1940;51.052;13.678;2023-07-13T03:16:47;4.10;;;3.27;;
3849;SDS011;1940;51.052;13.678;2023-07-13T03:19:13;3.90;;;3.20;;
3849;SDS011;1940;51.052;13.678;2023-07-13T03:21:38;6.53;;;3.20;;
3849;SDS011;1940;51.052;13.678;2023-07-13T03:24:04;11.30;;;3.23;;
3849;SDS011;1940;51.052;13.678;2023-07-13T03:26:30;3.87;;;2.90;;
3849;SDS011;1940;51.052;13.678;2023-07-13T03:28:56;4.40;;;3.27;;
3849;SDS011;1940;51.052;13.678;2023-07-13T03:31:24;5.40;;;3.70;;
3849;SDS011;1940;51.052;13.678;2023-07-13T03:33:53;3.87;;;3.40;;
3849;SDS011;1940;51.052;13.678;2023-07-13T03:36:20;3.87;;;3.40;;
3849;SDS011;1940;51.052;13.678;2023-07-13T03:38:55;4.67;;;3.40;;
3849;SDS011;1940;51.052;13.678;2023-07-13T03:41:23;5.37;;;3.63;;
3849;SDS011;1940;51.052;13.678;2023-07-13T03:43:49;7.37;;;3.27;;
3849;SDS011;1940;51.052;13.678;2023-07-13T03:46:15;4.90;;;3.57;;
3849;SDS011;1940;51.052;13.678;2023-07-13T03:48:44;3.73;;;3.27;;
3849;SDS011;1940;51.052;13.678;2023-07-13T03:51:12;4.47;;;3.33;;
3849;SDS011;1940;51.052;13.678;2023-07-13T03:53:39;5.67;;;3.73;;
3849;SDS011;1940;51.052;13.678;2023-07-13T03:56:07;8.13;;;3.50;;
3849;SDS011;1940;51.052;13.678;2023-07-13T03:58:34;7.47;;;3.60;;
3849;SDS011;1940;51.052;13.678;2023-07-13T04:01:01;6.07;;;3.73;;
3849;SDS011;1940;51.052;13.678;2023-07-13T04:03:28;4.50;;;3.30;;
3849;SDS011;1940;51.052;13.678;2023-07-13T04:05:57;7.07;;;3.77;;
3849;SDS011;1940;51.052;13.678;2023-07-13T04:08:24;5.30;;;3.87;;
3849;SDS011;1940;51.052;13.678;2023-07-13T04:10:54;8.90;;;4.40;;
3849;SDS011;1940;51.052;13.678;2023-07-13T04:13:20;3.90;;;3.20;;
3849;SDS011;1940;51.052;13.678;2023-07-13T04:15:46;4.27;;;3.50;;
3849;SDS011;1940;51.052;13.678;2023-07-13T04:18:12;8.93;;;3.40;;
3849;SDS011;1940;51.052;13.678;2023-07-13T04:20:37;7.73;;;3.47;;
3849;SDS011;1940;51.052;13.678;2023-07-13T04:23:03;3.57;;;3.20;;
3849;SDS011;1940;51.052;13.678;2023-07-13T04:25:28;5.63;;;3.30;;
3849;SDS011;1940;51.052;13.678;2023-07-13T04:27:54;6.23;;;3.57;;
3849;SDS011;1940;51.052;13.678;2023-07-13T04:30:19;7.63;;;3.27;;
3849;SDS011;1940;51.052;13.678;2023-07-13T04:32:45;4.73;;;3.23;;
3849;SDS011;1940;51.052;13.678;2023-07-13T04:35:12;4.40;;;3.47;;
3849;SDS011;1940;51.052;13.678;2023-07-13T04:37:39;7.90;;;3.60;;
3849;SDS011;1940;51.052;13.678;2023-07-13T04:40:04;4.70;;;3.50;;
3849;SDS011;1940;51.052;13.678;2023-07-13T04:42:31;6.50;;;3.43;;
3849;SDS011;1940;51.052;13.678;2023-07-13T04:44:56;8.43;;;4.00;;
3849;SDS011;1940;51.052;13.678;2023-07-13T04:47:22;7.60;;;3.60;;
3849;SDS011;1940;51.052;13.678;2023-07-13T04:49:47;5.00;;;3.57;;
3849;SDS011;1940;51.052;13.678;2023-07-13T04:52:13;3.93;;;3.40;;
3849;SDS011;1940;51.052;13.678;2023-07-13T04:54:38;9.07;;;3.30;;
3849;SDS011;1940;51.052;13.678;2023-07-13T04:57:04;9.30;;;3.40;;
3849;SDS011;1940;51.052;13.678;2023-07-13T04:59:33;6.03;;;3.73;;
3849;SDS011;1940;51.052;13.678;2023-07-13T05:01:59;4.20;;;2.70;;
3849;SDS011;1940;51.052;13.678;2023-07-13T05:04:26;5.20;;;3.33;;
3849;SDS011;1940;51.052;13.678;2023-07-13T05:06:51;7.03;;;3.17;;
3849;SDS011;1940;51.052;13.678;2023-07-13T05:09:17;3.50;;;2.70;;
3849;SDS011;1940;51.052;13.678;2023-07-13T05:11:43;3.17;;;2.63;;
3849;SDS011;1940;51.052;13.678;2023-07-13T05:14:08;4.60;;;3.17;;
3849;SDS011;1940;51.052;13.678;2023-07-13T05:16:35;4.53;;;3.47;;
3849;SDS011;1940;51.052;13.678;2023-07-13T05:19:00;5.33;;;3.13;;
3849;SDS011;1940;51.052;13.678;2023-07-13T05:21:26;8.27;;;3.23;;
3849;SDS011;1940;51.052;13.678;2023-07-13T05:23:52;7.07;;;2.83;;
3849;SDS011;1940;51.052;13.678;2023-07-13T05:26:17;5.80;;;3.30;;
3849;SDS011;1940;51.052;13.678;2023-07-13T05:28:44;6.87;;;3.00;;
3849;SDS011;1940;51.052;13.678;2023-07-13T05:31:10;6.07;;;3.20;;
3849;SDS011;1940;51.052;13.678;2023-07-13T05:33:35;5.60;;;3.20;;
3849;SDS011;1940;51.052;13.678;2023-07-13T05:36:01;5.30;;;2.90;;
3849;SDS011;1940;51.052;13.678;2023-07-13T05:38:27;4.83;;;2.83;;
3849;SDS011;1940;51.052;13.678;2023-07-13T05:40:54;6.53;;;2.90;;
3849;SDS011;1940;51.052;13.678;2023-07-13T05:43:21;3.97;;;2.90;;
3849;SDS011;1940;51.052;13.678;2023-07-13T05:45:47;8.80;;;2.90;;
3849;SDS011;1940;51.052;13.678;2023-07-13T05:48:12;4.10;;;2.70;;
3849;SDS011;1940;51.052;13.678;2023-07-13T05:50:38;3.23;;;2.73;;
3849;SDS011;1940;51.052;13.678;2023-07-13T05:53:04;3.03;;;2.43;;
3849;SDS011;1940;51.052;13.678;2023-07-13T05:55:29;5.40;;;3.00;;
3849;SDS011;1940;51.052;13.678;2023-07-13T05:57:55;6.40;;;2.87;;
3849;SDS011;1940;51.052;13.678;2023-07-13T06:00:23;3.50;;;2.60;;
3849;SDS011;1940;51.052;13.678;2023-07-13T06:02:49;6.50;;;2.60;;
3849;SDS011;1940;51.052;13.678;2023-07-13T06:05:15;3.03;;;2.70;;
3849;SDS011;1940;51.052;13.678;2023-07-13T06:07:41;3.33;;;2.40;;
3849;SDS011;1940;51.052;13.678;2023-07-13T06:10:07;2.60;;;2.30;;
3849;SDS011;1940;51.052;13.678;2023-07-13T06:12:32;6.60;;;2.50;;
3849;SDS011;1940;51.052;13.678;2023-07-13T06:14:58;8.03;;;2.30;;
3849;SDS011;1940;51.052;13.678;2023-07-13T06:17:23;7.60;;;2.30;;
3849;SDS011;1940;51.052;13.678;2023-07-13T06:19:49;2.73;;;2.53;;
3849;SDS011;1940;51.052;13.678;2023-07-13T06:22:14;5.70;;;2.80;;
3849;SDS011;1940;51.052;13.678;2023-07-13T06:24:40;9.40;;;2.70;;
3849;SDS011;1940;51.052;13.678;2023-07-13T06:27:05;17.43;;;3.00;;
3849;SDS011;1940;51.052;13.678;2023-07-13T06:29:31;16.47;;;2.70;;
3849;SDS011;1940;51.052;13.678;2023-07-13T06:31:56;7.47;;;2.97;;
3849;SDS011;1940;51.052;13.678;2023-07-13T06:34:22;9.97;;;3.10;;
3849;SDS011;1940;51.052;13.678;2023-07-13T06:36:47;4.87;;;2.77;;
3849;SDS011;1940;51.052;13.678;2023-07-13T06:39:13;2.90;;;2.60;;
3849;SDS011;1940;51.052;13.678;2023-07-13T06:41:39;3.97;;;2.80;;
3849;SDS011;1940;51.052;13.678;2023-07-13T06:44:04;3.97;;;2.80;;
3849;SDS011;1940;51.052;13.678;2023-07-13T06:46:31;3.73;;;2.70;;
3849;SDS011;1940;51.052;13.678;2023-07-13T06:48:56;4.00;;;2.30;;
3849;SDS011;1940;51.052;13.678;2023-07-13T06:51:22;6.43;;;2.33;;
3849;SDS011;1940;51.052;13.678;2023-07-13T06:53:47;4.23;;;2.60;;
3849;SDS011;1940;51.052;13.678;2023-07-13T06:56:14;5.47;;;2.60;;
3849;SDS011;1940;51.052;13.678;2023-07-13T06:58:40;5.70;;;2.40;;
3849;SDS011;1940;51.052;13.678;2023-07-13T07:01:05;3.33;;;2.00;;
3849;SDS011;1940;51.052;13.678;2023-07-13T07:03:31;2.63;;;2.40;;
3849;SDS011;1940;51.052;13.678;2023-07-13T07:06:01;6.70;;;2.60;;
3849;SDS011;1940;51.052;13.678;2023-07-13T07:08:31;2.93;;;1.90;;
3849;SDS011;1940;51.052;13.678;2023-07-13T07:10:56;6.20;;;2.23;;
3849;SDS011;1940;51.052;13.678;2023-07-13T07:13:22;3.47;;;2.40;;
3849;SDS011;1940;51.052;13.678;2023-07-13T07:15:49;4.33;;;2.40;;
3849;SDS011;1940;51.052;13.678;2023-07-13T07:18:15;3.93;;;2.80;;
3849;SDS011;1940;51.052;13.678;2023-07-13T07:20:41;5.33;;;3.13;;
3849;SDS011;1940;51.052;13.678;2023-07-13T07:23:06;6.33;;;2.90;;
3849;SDS011;1940;51.052;13.678;2023-07-13T07:25:32;7.93;;;2.87;;
3849;SDS011;1940;51.052;13.678;2023-07-13T07:27:59;6.33;;;2.73;;
3849;SDS011;1940;51.052;13.678;2023-07-13T07:30:25;5.07;;;2.30;;
3849;SDS011;1940;51.052;13.678;2023-07-13T07:32:50;2.97;;;2.10;;
3849;SDS011;1940;51.052;13.678;2023-07-13T07:35:16;3.07;;;2.23;;
3849;SDS011;1940;51.052;13.678;2023-07-13T07:37:41;3.17;;;2.30;;
3849;SDS011;1940;51.052;13.678;2023-07-13T07:40:07;4.90;;;2.13;;
3849;SDS011;1940;51.052;13.678;2023-07-13T07:42:33;3.87;;;2.13;;
3849;SDS011;1940;51.052;13.678;2023-07-13T07:44:59;2.27;;;2.07;;
3849;SDS011;1940;51.052;13.678;2023-07-13T07:47:25;3.77;;;2.40;;
3849;SDS011;1940;51.052;13.678;2023-07-13T07:49:51;6.73;;;2.30;;
3849;SDS011;1940;51.052;13.678;2023-07-13T07:52:17;6.10;;;2.53;;
3849;SDS011;1940;51.052;13.678;2023-07-13T07:54:43;3.93;;;2.13;;
3849;SDS011;1940;51.052;13.678;2023-07-13T07:57:09;2.37;;;2.17;;
3849;SDS011;1940;51.052;13.678;2023-07-13T07:59:35;2.90;;;1.90;;
3849;SDS011;1940;51.052;13.678;2023-07-13T08:02:01;3.67;;;1.97;;
3849;SDS011;1940;51.052;13.678;2023-07-13T08:04:27;1.87;;;1.77;;
3849;SDS011;1940;51.052;13.678;2023-07-13T08:06:53;3.50;;;2.07;;
3849;SDS011;1940;51.052;13.678;2023-07-13T08:09:21;3.07;;;2.37;;
3849;SDS011;1940;51.052;13.678;2023-07-13T08:11:46;3.20;;;1.90;;
3849;SDS011;1940;51.052;13.678;2023-07-13T08:14:12;2.63;;;1.97;;
3849;SDS011;1940;51.052;13.678;2023-07-13T08:16:37;2.00;;;1.30;;
3849;SDS011;1940;51.052;13.678;2023-07-13T08:19:03;5.20;;;2.00;;
3849;SDS011;1940;51.052;13.678;2023-07-13T08:21:29;4.90;;;1.80;;
3849;SDS011;1940;51.052;13.678;2023-07-13T08:23:55;6.07;;;2.00;;
3849;SDS011;1940;51.052;13.678;2023-07-13T08:26:20;2.80;;;2.20;;
3849;SDS011;1940;51.052;13.678;2023-07-13T08:28:46;9.40;;;2.37;;
3849;SDS011;1940;51.052;13.678;2023-07-13T08:31:12;3.83;;;2.17;;
3849;SDS011;1940;51.052;13.678;2023-07-13T08:33:38;3.47;;;2.13;;
3849;SDS011;1940;51.052;13.678;2023-07-13T08:36:05;2.53;;;2.20;;
3849;SDS011;1940;51.052;13.678;2023-07-13T08:38:31;3.87;;;2.20;;
3849;SDS011;1940;51.052;13.678;2023-07-13T08:40:57;4.07;;;2.07;;
3849;SDS011;1940;51.052;13.678;2023-07-13T08:43:25;6.03;;;2.13;;
3849;SDS011;1940;51.052;13.678;2023-07-13T08:46:13;4.63;;;2.00;;
3849;SDS011;1940;51.052;13.678;2023-07-13T08:48:45;2.63;;;2.10;;
3849;SDS011;1940;51.052;13.678;2023-07-13T08:54:26;2.87;;;1.77;;
3849;SDS011;1940;51.052;13.678;2023-07-13T08:56:56;5.30;;;2.00;;
3849;SDS011;1940;51.052;13.678;2023-07-13T08:59:25;9.40;;;2.10;;
3849;SDS011;1940;51.052;13.678;2023-07-13T09:02:02;2.43;;;2.00;;
3849;SDS011;1940;51.052;13.678;2023-07-13T09:04:45;6.80;;;2.00;;
3849;SDS011;1940;51.052;13.678;2023-07-13T09:07:14;2.90;;;2.10;;
3849;SDS011;1940;51.052;13.678;2023-07-13T09:10:10;3.50;;;2.13;;
3849;SDS011;1940;51.052;13.678;2023-07-13T09:12:51;6.20;;;2.23;;
3849;SDS011;1940;51.052;13.678;2023-07-13T09:15:34;4.73;;;2.00;;
3849;SDS011;1940;51.052;13.678;2023-07-13T09:20:59;6.13;;;2.10;;
3849;SDS011;1940;51.052;13.678;2023-07-13T09:23:29;3.40;;;1.70;;
3849;SDS011;1940;51.052;13.678;2023-07-13T09:28:59;4.37;;;1.63;;
3849;SDS011;1940;51.052;13.678;2023-07-13T09:31:38;2.37;;;2.03;;
3849;SDS011;1940;51.052;13.678;2023-07-13T09:34:11;1.70;;;1.60;;
3849;SDS011;1940;51.052;13.678;2023-07-13T09:36:37;4.73;;;1.60;;
3849;SDS011;1940;51.052;13.678;2023-07-13T09:39:04;2.93;;;1.93;;
3849;SDS011;1940;51.052;13.678;2023-07-13T09:44:38;2.83;;;1.63;;
3849;SDS011;1940;51.052;13.678;2023-07-13T09:47:23;2.80;;;1.80;;
3849;SDS011;1940;51.052;13.678;2023-07-13T09:49:55;2.07;;;1.70;;
3849;SDS011;1940;51.052;13.678;2023-07-13T09:52:25;3.33;;;1.80;;
3849;SDS011;1940;51.052;13.678;2023-07-13T09:54:52;2.87;;;1.83;;
3849;SDS011;1940;51.052;13.678;2023-07-13T09:57:24;2.97;;;1.90;;
3849;SDS011;1940;51.052;13.678;2023-07-13T09:59:52;3.10;;;1.73;;
3849;SDS011;1940;51.052;13.678;2023-07-13T10:02:32;1.90;;;1.70;;
3849;SDS011;1940;51.052;13.678;2023-07-13T10:07:30;3.37;;;1.70;;
3849;SDS011;1940;51.052;13.678;2023-07-13T10:09:57;2.43;;;1.90;;
3849;SDS011;1940;51.052;13.678;2023-07-13T10:12:26;2.23;;;1.63;;
3849;SDS011;1940;51.052;13.678;2023-07-13T10:14:54;2.80;;;2.60;;
3849;SDS011;1940;51.052;13.678;2023-07-13T10:17:31;2.60;;;2.00;;
3849;SDS011;1940;51.052;13.678;2023-07-13T10:20:04;6.93;;;2.30;;
3849;SDS011;1940;51.052;13.678;2023-07-13T10:22:52;3.00;;;2.20;;
3849;SDS011;1940;51.052;13.678;2023-07-13T10:25:25;3.60;;;2.20;;
3849;SDS011;1940;51.052;13.678;2023-07-13T10:27:54;2.10;;;1.80;;
3849;SDS011;1940;51.052;13.678;2023-07-13T10:30:27;3.80;;;2.20;;
3849;SDS011;1940;51.052;13.678;2023-07-13T10:33:00;4.33;;;1.73;;
3849;SDS011;1940;51.052;13.678;2023-07-13T10:35:29;2.10;;;1.53;;
3849;SDS011;1940;51.052;13.678;2023-07-13T10:38:06;6.53;;;1.70;;
3849;SDS011;1940;51.052;13.678;2023-07-13T10:40:40;2.00;;;1.50;;
3849;SDS011;1940;51.052;13.678;2023-07-13T10:45:41;2.10;;;1.50;;
3849;SDS011;1940;51.052;13.678;2023-07-13T10:48:11;2.30;;;1.53;;
3849;SDS011;1940;51.052;13.678;2023-07-13T10:50:38;2.97;;;1.40;;
3849;SDS011;1940;51.052;13.678;2023-07-13T10:53:27;6.23;;;1.50;;
3849;SDS011;1940;51.052;13.678;2023-07-13T10:55:56;1.40;;;1.03;;
3849;SDS011;1940;51.052;13.678;2023-07-13T10:58:40;3.57;;;1.30;;
3849;SDS011;1940;51.052;13.678;2023-07-13T11:03:55;5.20;;;1.60;;
3849;SDS011;1940;51.052;13.678;2023-07-13T11:06:39;1.60;;;1.43;;
3849;SDS011;1940;51.052;13.678;2023-07-13T11:11:47;1.83;;;1.37;;
3849;SDS011;1940;51.052;13.678;2023-07-13T11:15:01;1.80;;;1.70;;
3849;SDS011;1940;51.052;13.678;2023-07-13T11:20:19;4.00;;;1.83;;
3849;SDS011;1940;51.052;13.678;2023-07-13T11:28:04;2.33;;;2.03;;
3849;SDS011;1940;51.052;13.678;2023-07-13T11:30:37;3.00;;;1.80;;
3849;SDS011;1940;51.052;13.678;2023-07-13T11:36:04;2.17;;;1.90;;
3849;SDS011;1940;51.052;13.678;2023-07-13T11:38:41;4.07;;;2.00;;
3849;SDS011;1940;51.052;13.678;2023-07-13T11:41:26;3.67;;;2.17;;
3849;SDS011;1940;51.052;13.678;2023-07-13T11:44:11;4.83;;;2.27;;
3849;SDS011;1940;51.052;13.678;2023-07-13T11:46:49;4.17;;;2.10;;
3849;SDS011;1940;51.052;13.678;2023-07-13T11:49:17;5.90;;;2.10;;
3849;SDS011;1940;51.052;13.678;2023-07-13T11:51:52;3.87;;;2.00;;
3849;SDS011;1940;51.052;13.678;2023-07-13T11:55:03;6.53;;;2.10;;
3849;SDS011;1940;51.052;13.678;2023-07-13T11:57:30;3.60;;;2.10;;
3849;SDS011;1940;51.052;13.678;2023-07-13T11:59:59;4.53;;;2.30;;
3849;SDS011;1940;51.052;13.678;2023-07-13T12:02:36;3.70;;;1.83;;
3849;SDS011;1940;51.052;13.678;2023-07-13T12:05:05;2.20;;;2.00;;
3849;SDS011;1940;51.052;13.678;2023-07-13T12:07:34;4.20;;;2.30;;
3849;SDS011;1940;51.052;13.678;2023-07-13T12:10:13;3.53;;;2.20;;
3849;SDS011;1940;51.052;13.678;2023-07-13T12:13:09;2.20;;;1.90;;
3849;SDS011;1940;51.052;13.678;2023-07-13T12:15:41;3.10;;;2.17;;
3849;SDS011;1940;51.052;13.678;2023-07-13T12:18:21;3.27;;;2.27;;
3849;SDS011;1940;51.052;13.678;2023-07-13T12:20:49;4.77;;;2.03;;
3849;SDS011;1940;51.052;13.678;2023-07-13T12:23:22;3.90;;;1.90;;
3849;SDS011;1940;51.052;13.678;2023-07-13T12:25:50;5.83;;;2.10;;
3849;SDS011;1940;51.052;13.678;2023-07-13T12:28:30;6.03;;;2.23;;
3849;SDS011;1940;51.052;13.678;2023-07-13T12:31:25;4.33;;;2.33;;
3849;SDS011;1940;51.052;13.678;2023-07-13T12:36:29;2.50;;;2.10;;
3849;SDS011;1940;51.052;13.678;2023-07-13T12:39:04;3.20;;;1.93;;
3849;SDS011;1940;51.052;13.678;2023-07-13T12:41:41;2.60;;;1.87;;
3849;SDS011;1940;51.052;13.678;2023-07-13T12:44:17;3.93;;;1.80;;
3849;SDS011;1940;51.052;13.678;2023-07-13T12:47:04;4.63;;;2.50;;
3849;SDS011;1940;51.052;13.678;2023-07-13T12:49:39;3.90;;;2.20;;
3849;SDS011;1940;51.052;13.678;2023-07-13T12:52:10;3.80;;;1.90;;
3849;SDS011;1940;51.052;13.678;2023-07-13T12:54:40;6.57;;;2.00;;
3849;SDS011;1940;51.052;13.678;2023-07-13T12:57:08;3.97;;;2.10;;
3849;SDS011;1940;51.052;13.678;2023-07-13T12:59:41;4.03;;;1.80;;
3849;SDS011;1940;51.052;13.678;2023-07-13T13:02:49;1.73;;;1.50;;
3849;SDS011;1940;51.052;13.678;2023-07-13T13:04:57;14.13;;;2.20;;
3849;SDS011;1940;51.052;13.678;2023-07-13T13:07:24;2.50;;;1.67;;
3849;SDS011;1940;51.052;13.678;2023-07-13T13:09:51;4.37;;;2.30;;
3849;SDS011;1940;51.052;13.678;2023-07-13T13:12:18;2.03;;;1.77;;
3849;SDS011;1940;51.052;13.678;2023-07-13T13:14:44;3.10;;;1.60;;
3849;SDS011;1940;51.052;13.678;2023-07-13T13:17:16;4.10;;;1.83;;
3849;SDS011;1940;51.052;13.678;2023-07-13T13:19:45;3.80;;;2.10;;
3849;SDS011;1940;51.052;13.678;2023-07-13T13:22:12;6.03;;;1.97;;
3849;SDS011;1940;51.052;13.678;2023-07-13T13:24:38;1.63;;;1.53;;
3849;SDS011;1940;51.052;13.678;2023-07-13T13:27:04;3.67;;;1.80;;
3849;SDS011;1940;51.052;13.678;2023-07-13T13:29:31;4.23;;;1.70;;
3849;SDS011;1940;51.052;13.678;2023-07-13T13:31:58;2.17;;;1.60;;
3849;SDS011;1940;51.052;13.678;2023-07-13T13:34:24;2.73;;;1.70;;
3849;SDS011;1940;51.052;13.678;2023-07-13T13:36:50;5.73;;;1.90;;
3849;SDS011;1940;51.052;13.678;2023-07-13T13:39:22;3.60;;;1.63;;
3849;SDS011;1940;51.052;13.678;2023-07-13T13:41:50;5.30;;;1.70;;
3849;SDS011;1940;51.052;13.678;2023-07-13T13:44:17;2.30;;;1.63;;
3849;SDS011;1940;51.052;13.678;2023-07-13T13:46:46;2.40;;;1.77;;
3849;SDS011;1940;51.052;13.678;2023-07-13T13:49:15;2.07;;;1.70;;
3849;SDS011;1940;51.052;13.678;2023-07-13T13:51:44;2.10;;;1.50;;
3849;SDS011;1940;51.052;13.678;2023-07-13T13:54:13;6.43;;;2.00;;
3849;SDS011;1940;51.052;13.678;2023-07-13T13:56:44;1.80;;;1.70;;
3849;SDS011;1940;51.052;13.678;2023-07-13T13:59:12;4.63;;;1.90;;
3849;SDS011;1940;51.052;13.678;2023-07-13T14:01:39;3.70;;;2.00;;
3849;SDS011;1940;51.052;13.678;2023-07-13T14:04:05;2.80;;;2.07;;
3849;SDS011;1940;51.052;13.678;2023-07-13T14:06:32;2.13;;;1.73;;
3849;SDS011;1940;51.052;13.678;2023-07-13T14:08:58;6.53;;;1.97;;
3849;SDS011;1940;51.052;13.678;2023-07-13T14:11:24;2.50;;;2.00;;
3849;SDS011;1940;51.052;13.678;2023-07-13T14:13:53;1.87;;;1.67;;
3849;SDS011;1940;51.052;13.678;2023-07-13T14:16:25;9.67;;;1.90;;
3849;SDS011;1940;51.052;13.678;2023-07-13T14:18:54;3.00;;;1.80;;
3849;SDS011;1940;51.052;13.678;2023-07-13T14:21:23;3.00;;;1.87;;
3849;SDS011;1940;51.052;13.678;2023-07-13T14:23:48;1.83;;;1.60;;
3849;SDS011;1940;51.052;13.678;2023-07-13T14:26:24;4.73;;;2.03;;
3849;SDS011;1940;51.052;13.678;2023-07-13T14:28:52;3.90;;;1.90;;
3849;SDS011;1940;51.052;13.678;2023-07-13T14:31:20;4.30;;;1.90;;
3849;SDS011;1940;51.052;13.678;2023-07-13T14:33:46;3.13;;;1.70;;
3849;SDS011;1940;51.052;13.678;2023-07-13T14:36:36;3.53;;;2.13;;
3849;SDS011;1940;51.052;13.678;2023-07-13T14:39:24;2.30;;;1.70;;
3849;SDS011;1940;51.052;13.678;2023-07-13T14:41:51;2.83;;;1.87;;
3849;SDS011;1940;51.052;13.678;2023-07-13T14:44:19;3.13;;;1.90;;
3849;SDS011;1940;51.052;13.678;2023-07-13T14:46:48;4.20;;;1.80;;
3849;SDS011;1940;51.052;13.678;2023-07-13T14:49:30;6.93;;;1.60;;
3849;SDS011;1940;51.052;13.678;2023-07-13T14:52:00;5.77;;;2.10;;
3849;SDS011;1940;51.052;13.678;2023-07-13T14:54:28;6.67;;;2.40;;
3849;SDS011;1940;51.052;13.678;2023-07-13T14:56:54;6.43;;;1.70;;
3849;SDS011;1940;51.052;13.678;2023-07-13T14:59:19;2.07;;;1.80;;
3849;SDS011;1940;51.052;13.678;2023-07-13T15:01:45;9.13;;;1.73;;
3849;SDS011;1940;51.052;13.678;2023-07-13T15:04:13;4.13;;;2.07;;
3849;SDS011;1940;51.052;13.678;2023-07-13T15:06:58;1.63;;;1.53;;
3849;SDS011;1940;51.052;13.678;2023-07-13T15:09:27;4.83;;;1.63;;
3849;SDS011;1940;51.052;13.678;2023-07-13T15:11:56;1.93;;;1.50;;
3849;SDS011;1940;51.052;13.678;2023-07-13T15:14:23;2.53;;;1.80;;
3849;SDS011;1940;51.052;13.678;2023-07-13T15:16:51;1.70;;;1.60;;
3849;SDS011;1940;51.052;13.678;2023-07-13T15:19:19;3.50;;;1.50;;
3849;SDS011;1940;51.052;13.678;2023-07-13T15:21:46;1.60;;;1.27;;
3849;SDS011;1940;51.052;13.678;2023-07-13T15:24:13;3.33;;;1.70;;
3849;SDS011;1940;51.052;13.678;2023-07-13T15:26:39;2.20;;;1.40;;
3849;SDS011;1940;51.052;13.678;2023-07-13T15:29:04;7.07;;;1.60;;
3849;SDS011;1940;51.052;13.678;2023-07-13T15:31:31;4.20;;;1.20;;
3849;SDS011;1940;51.052;13.678;2023-07-13T15:33:58;2.00;;;1.30;;
3849;SDS011;1940;51.052;13.678;2023-07-13T15:36:25;1.87;;;1.27;;
3849;SDS011;1940;51.052;13.678;2023-07-13T15:38:52;2.20;;;1.37;;
3849;SDS011;1940;51.052;13.678;2023-07-13T15:41:20;1.37;;;1.20;;
3849;SDS011;1940;51.052;13.678;2023-07-13T15:43:51;1.80;;;1.17;;
3849;SDS011;1940;51.052;13.678;2023-07-13T15:46:19;5.77;;;1.33;;
3849;SDS011;1940;51.052;13.678;2023-07-13T15:48:48;2.43;;;1.33;;